Time;durP1;ratioP1;P1;durP2;ratioP2;P2;SDS_P1;SDS_P2;PMS_P1;PMS_P2;Temp;Humidity;BMP_temperature;BMP_pressure;BME280_temperature;BME280_humidity;BME280_pressure;Samples;Min_cycle;Max_cycle;Signal;HPM_P1;HPM_P2
2023/04/28 00:00:05;;;;;;;6.85;3.28;;;;;;;18.20;40.54;100764.59;5071328;28;20049;-64
2023/04/28 00:02:34;;;;;;;5.50;3.05;;;;;;;18.18;40.77;100760.31;5071218;28;20045;-65
2023/04/28 00:05:04;;;;;;;5.32;3.08;;;;;;;18.16;40.67;100752.34;5071190;28;20105;-64
2023/04/28 00:07:32;;;;;;;5.28;2.90;;;;;;;18.15;41.04;100757.88;5071608;28;20045;-65
2023/04/28 00:10:00;;;;;;;5.28;3.08;;;;;;;18.13;40.90;100751.72;5071279;28;20048;-65
2023/04/28 00:12:28;;;;;;;6.18;3.00;;;;;;;18.11;40.98;100751.84;5071241;28;20083;-64
2023/04/28 00:14:56;;;;;;;7.63;3.28;;;;;;;18.10;40.75;100755.53;5071002;28;20045;-65
2023/04/28 00:17:24;;;;;;;6.03;3.17;;;;;;;18.09;40.82;100761.06;5071118;28;20105;-65
2023/04/28 00:19:53;;;;;;;6.15;3.10;;;;;;;18.07;40.97;100758.50;5071231;28;20454;-65
2023/04/28 00:22:22;;;;;;;7.75;3.40;;;;;;;18.06;40.97;100756.81;5071354;28;20466;-65
2023/04/28 00:24:50;;;;;;;6.75;3.17;;;;;;;18.05;40.75;100762.31;5071090;28;20486;-64
2023/04/28 00:27:19;;;;;;;4.97;3.00;;;;;;;18.03;40.91;100759.72;5071149;28;20044;-65
2023/04/28 00:29:47;;;;;;;4.78;2.90;;;;;;;18.01;40.85;100753.63;5071087;28;20056;-65
2023/04/28 00:32:15;;;;;;;6.28;3.10;;;;;;;18.00;41.05;100757.31;5070841;28;20041;-65
2023/04/28 00:34:44;;;;;;;7.20;3.30;;;;;;;17.99;40.96;100755.59;5070903;28;20063;-65
2023/04/28 00:37:15;;;;;;;5.80;3.05;;;;;;;17.96;40.93;100754.00;5073602;28;20048;-65
2023/04/28 00:39:45;;;;;;;5.90;3.17;;;;;;;17.95;40.88;100755.00;5074456;28;20045;-65
2023/04/28 00:42:14;;;;;;;7.00;3.30;;;;;;;17.95;40.98;100755.00;5074425;28;20067;-65
2023/04/28 00:44:42;;;;;;;6.10;3.60;;;;;;;17.93;41.07;100754.25;5074084;28;20053;-65
2023/04/28 00:47:11;;;;;;;7.75;3.53;;;;;;;17.91;40.91;100752.66;5074396;28;20490;-65
2023/04/28 00:49:39;;;;;;;5.95;3.30;;;;;;;17.89;41.43;100744.69;5074425;28;20049;-65
2023/04/28 00:52:07;;;;;;;5.43;3.10;;;;;;;17.88;41.05;100748.38;5074373;28;20048;-65
2023/04/28 00:54:36;;;;;;;7.35;3.63;;;;;;;17.87;41.03;100753.91;5074106;28;20486;-65
2023/04/28 00:57:06;;;;;;;5.97;3.13;;;;;;;17.85;40.94;100750.47;5074069;28;20489;-64
2023/04/28 00:59:34;;;;;;;6.30;3.63;;;;;;;17.83;40.96;100753.28;5073993;28;20048;-65
2023/04/28 01:02:03;;;;;;;7.18;3.75;;;;;;;17.82;41.46;100758.81;5074150;28;20049;-65
2023/04/28 01:04:32;;;;;;;5.90;3.05;;;;;;;17.80;41.18;100761.66;5074065;28;20053;-65
2023/04/28 01:07:01;;;;;;;6.45;3.53;;;;;;;17.79;41.36;100764.47;5074113;28;20057;-65
2023/04/28 01:09:29;;;;;;;5.68;3.42;;;;;;;17.78;41.50;100762.75;5073851;28;20044;-65
2023/04/28 01:11:57;;;;;;;5.88;3.67;;;;;;;17.78;41.03;100773.56;5073744;28;20051;-65
2023/04/28 01:14:27;;;;;;;7.05;3.42;;;;;;;17.76;40.87;100767.41;5073710;28;20080;-64
2023/04/28 01:16:56;;;;;;;5.72;3.55;;;;;;;17.73;40.95;100761.28;5073678;28;20049;-65
2023/04/28 01:19:25;;;;;;;5.30;3.58;;;;;;;17.72;40.95;100766.81;5073713;28;20123;-65
2023/04/28 01:21:53;;;;;;;7.45;3.80;;;;;;;17.71;41.50;100762.41;5073729;28;20094;-64
2023/04/28 01:24:23;;;;;;;5.93;3.33;;;;;;;17.69;41.50;100762.53;5073582;28;20127;-64
2023/04/28 01:26:51;;;;;;;6.72;3.75;;;;;;;17.68;41.32;100758.09;5073795;28;20153;-65
2023/04/28 01:29:19;;;;;;;5.57;3.67;;;;;;;17.67;41.20;100763.63;5073526;28;20087;-65
2023/04/28 01:31:47;;;;;;;6.32;3.72;;;;;;;17.66;41.43;100773.56;5073596;28;20091;-64
2023/04/28 01:34:16;;;;;;;6.18;3.17;;;;;;;17.64;41.42;100767.41;5073495;28;20048;-65
2023/04/28 01:36:44;;;;;;;6.38;3.53;;;;;;;17.63;41.75;100763.00;5073259;28;20490;-64
2023/04/28 01:39:13;;;;;;;7.60;3.30;;;;;;;17.61;41.99;100767.66;5073359;28;20872;-64
2023/04/28 01:41:43;;;;;;;6.15;3.63;;;;;;;17.60;41.88;100765.09;5073458;28;20132;-64
2023/04/28 01:44:12;;;;;;;5.55;3.28;;;;;;;17.58;41.67;100765.22;5073418;28;20098;-64
2023/04/28 01:46:40;;;;;;;5.68;3.17;;;;;;;17.57;41.77;100766.22;5073058;28;20133;-64
2023/04/28 01:49:08;;;;;;;5.25;3.58;;;;;;;17.56;41.43;100764.47;5072311;28;20098;-65
2023/04/28 01:51:36;;;;;;;7.80;3.72;;;;;;;17.54;41.57;100761.03;5072987;28;20056;-64
2023/04/28 01:54:05;;;;;;;7.18;3.35;;;;;;;17.53;41.74;100753.06;5073415;28;20059;-65
2023/04/28 01:56:33;;;;;;;6.00;3.30;;;;;;;17.51;42.06;100753.22;5072903;28;20553;-64
2023/04/28 01:59:03;;;;;;;6.93;3.60;;;;;;;17.50;42.12;100762.28;5073065;28;20087;-64
2023/04/28 02:01:31;;;;;;;5.25;3.25;;;;;;;17.49;41.84;100768.66;5073094;28;20041;-65
2023/04/28 02:03:59;;;;;;;6.88;3.78;;;;;;;17.49;42.25;100765.09;5072863;28;20113;-65
2023/04/28 02:06:28;;;;;;;5.90;3.50;;;;;;;17.47;42.21;100770.63;5073071;28;20139;-64
2023/04/28 02:08:56;;;;;;;6.38;3.33;;;;;;;17.44;42.26;100769.00;5072899;28;20044;-65
2023/04/28 02:11:24;;;;;;;6.03;3.22;;;;;;;17.44;42.03;100770.84;5072748;28;20098;-65
2023/04/28 02:13:52;;;;;;;7.15;3.63;;;;;;;17.43;42.38;100774.53;5072730;28;20052;-65
2023/04/28 02:16:21;;;;;;;6.28;3.75;;;;;;;17.41;42.40;100779.19;5072482;28;20139;-65
2023/04/28 02:18:50;;;;;;;7.88;3.67;;;;;;;17.40;41.97;100777.50;5072487;28;20793;-65
2023/04/28 02:21:18;;;;;;;7.38;3.80;;;;;;;17.38;42.04;100779.47;5072721;28;20089;-65
2023/04/28 02:23:46;;;;;;;7.88;3.80;;;;;;;17.37;41.95;100780.41;5072612;28;20040;-64
2023/04/28 02:26:15;;;;;;;5.68;3.20;;;;;;;17.36;42.23;100765.22;5072479;28;20048;-65
2023/04/28 02:28:44;;;;;;;6.63;3.60;;;;;;;17.35;42.19;100775.16;5072380;28;20489;-65
2023/04/28 02:31:12;;;;;;;6.55;3.60;;;;;;;17.34;41.78;100781.53;5072295;28;20490;-65
2023/04/28 02:33:42;;;;;;;7.13;4.30;;;;;;;17.32;41.98;100777.25;5072215;28;20063;-65
2023/04/28 02:36:10;;;;;;;5.90;3.80;;;;;;;17.31;42.49;100775.53;5072378;28;20075;-65
2023/04/28 02:38:40;;;;;;;6.18;3.70;;;;;;;17.30;42.23;100780.06;5072323;28;20056;-64
2023/04/28 02:41:08;;;;;;;6.40;4.07;;;;;;;17.29;42.03;100774.81;5072261;28;20055;-64
2023/04/28 02:43:37;;;;;;;6.35;3.95;;;;;;;17.27;42.14;100777.59;5072190;28;20540;-64
2023/04/28 02:46:05;;;;;;;8.00;4.07;;;;;;;17.26;41.98;100780.41;5071746;28;20056;-64
2023/04/28 02:48:34;;;;;;;7.00;4.50;;;;;;;17.25;42.11;100781.41;5072157;28;20052;-64
2023/04/28 02:51:05;;;;;;;8.07;4.43;;;;;;;17.24;41.76;100779.69;5071991;28;20470;-64
2023/04/28 02:53:33;;;;;;;6.63;3.50;;;;;;;17.22;42.23;100782.50;5071842;28;20047;-64
2023/04/28 02:56:03;;;;;;;6.25;3.58;;;;;;;17.22;42.51;100781.66;5071764;28;20143;-64
2023/04/28 02:58:31;;;;;;;6.38;3.88;;;;;;;17.20;42.17;100783.63;5071470;28;20041;-64
2023/04/28 03:01:00;;;;;;;7.03;4.20;;;;;;;17.17;42.55;100780.16;5072060;28;20041;-64
2023/04/28 03:03:28;;;;;;;7.68;3.97;;;;;;;17.17;42.44;100776.63;5071845;28;20045;-64
2023/04/28 03:05:56;;;;;;;6.50;4.00;;;;;;;17.16;42.01;100777.59;5071714;28;20052;-65
2023/04/28 03:08:26;;;;;;;6.32;4.10;;;;;;;17.14;42.36;100780.41;5071589;28;20060;-64
2023/04/28 03:10:55;;;;;;;6.75;4.05;;;;;;;17.13;42.28;100783.25;5071693;28;20052;-65
2023/04/28 03:13:24;;;;;;;5.72;3.83;;;;;;;17.12;42.29;100787.78;5071886;28;20045;-65
2023/04/28 03:15:52;;;;;;;5.97;3.80;;;;;;;17.11;42.33;100785.22;5071633;28;20143;-65
2023/04/28 03:18:21;;;;;;;6.20;4.03;;;;;;;17.11;42.51;100790.59;5071648;28;20398;-65
2023/04/28 03:20:49;;;;;;;6.55;3.90;;;;;;;17.09;42.15;100788.03;5071728;28;20088;-65
2023/04/28 03:23:18;;;;;;;6.78;3.72;;;;;;;17.08;42.05;100789.00;5071468;28;20475;-65
2023/04/28 03:25:48;;;;;;;8.15;3.83;;;;;;;17.06;42.07;100790.94;5071417;28;20044;-64
2023/04/28 03:28:16;;;;;;;6.32;3.80;;;;;;;17.06;42.24;100793.63;5071576;28;20049;-64
2023/04/28 03:30:44;;;;;;;6.68;4.20;;;;;;;17.05;42.40;100796.47;5071819;28;20048;-65
2023/04/28 03:33:12;;;;;;;9.18;4.60;;;;;;;17.03;42.12;100796.59;5071714;28;20044;-65
2023/04/28 03:35:40;;;;;;;6.93;3.78;;;;;;;17.03;42.76;100799.28;5071547;28;20057;-64
2023/04/28 03:38:08;;;;;;;7.65;4.38;;;;;;;17.02;42.56;100804.78;5071468;28;20047;-64
2023/04/28 03:40:37;;;;;;;8.20;4.13;;;;;;;17.00;41.97;100796.84;5071336;28;20055;-64
2023/04/28 03:43:06;;;;;;;8.20;4.32;;;;;;;16.99;42.21;100796.97;5071543;28;20049;-64
2023/04/28 03:45:34;;;;;;;6.50;3.95;;;;;;;16.99;42.29;100796.97;5071411;28;20048;-65
2023/04/28 03:48:03;;;;;;;8.93;4.22;;;;;;;16.98;42.50;100796.06;5071311;28;20056;-64
2023/04/28 03:50:32;;;;;;;6.72;4.05;;;;;;;16.96;42.32;100798.03;5071342;28;20053;-64
2023/04/28 03:53:01;;;;;;;6.78;3.90;;;;;;;16.96;42.28;100791.78;5071069;28;20044;-64
2023/04/28 03:55:29;;;;;;;6.68;3.92;;;;;;;16.94;42.37;100802.69;5071367;28;20498;-64
2023/04/28 03:57:57;;;;;;;5.97;3.40;;;;;;;16.94;42.71;100793.75;5071191;28;20045;-64
2023/04/28 04:00:27;;;;;;;6.78;3.75;;;;;;;16.94;42.61;100807.22;5071350;28;20540;-64
2023/04/28 04:02:55;;;;;;;7.25;3.70;;;;;;;16.90;42.63;100806.63;5071104;28;20411;-64
2023/04/28 04:05:24;;;;;;;7.95;3.83;;;;;;;16.90;42.51;100809.31;5070924;28;20048;-65
2023/04/28 04:07:55;;;;;;;6.90;3.80;;;;;;;16.88;42.42;100812.09;5071199;28;20059;-65
2023/04/28 04:10:23;;;;;;;7.18;3.78;;;;;;;16.88;42.68;100804.00;5070765;28;20044;-64
2023/04/28 04:12:51;;;;;;;7.25;4.30;;;;;;;16.90;42.56;100812.00;5074889;28;20041;-64
2023/04/28 04:15:19;;;;;;;7.63;3.90;;;;;;;16.88;42.41;100811.25;5074758;28;20098;-64
2023/04/28 04:17:48;;;;;;;6.10;3.55;;;;;;;16.88;42.61;100811.25;5074677;28;20048;-64
2023/04/28 04:20:17;;;;;;;6.30;3.53;;;;;;;16.88;42.88;100813.94;5074624;28;20045;-64
2023/04/28 04:22:45;;;;;;;6.90;4.07;;;;;;;16.86;42.53;100815.91;5074653;28;20478;-64
2023/04/28 04:25:13;;;;;;;5.93;3.85;;;;;;;16.86;42.90;100813.19;5074515;28;20086;-64
2023/04/28 04:27:41;;;;;;;5.75;3.50;;;;;;;16.85;42.90;100816.88;5074716;28;20049;-64
2023/04/28 04:30:10;;;;;;;7.55;4.18;;;;;;;16.84;43.01;100823.25;5074787;28;20080;-64
2023/04/28 04:32:38;;;;;;;6.25;3.60;;;;;;;16.83;42.77;100824.22;5074379;28;20087;-63
2023/04/28 04:35:09;;;;;;;6.90;3.63;;;;;;;16.83;42.84;100824.22;5074444;28;20048;-65
2023/04/28 04:37:37;;;;;;;6.38;3.45;;;;;;;16.81;42.59;100818.09;5074230;28;20055;-64
2023/04/28 04:40:07;;;;;;;7.57;4.20;;;;;;;16.82;42.63;100822.50;5074401;28;20075;-64
2023/04/28 04:42:35;;;;;;;7.22;3.75;;;;;;;16.81;42.63;100818.09;5074408;28;20418;-63
2023/04/28 04:45:04;;;;;;;6.88;3.88;;;;;;;16.81;42.77;100815.41;5073951;28;20052;-64
2023/04/28 04:47:32;;;;;;;6.75;3.97;;;;;;;16.80;42.72;100813.69;5074299;28;20048;-64
2023/04/28 04:50:00;;;;;;;6.43;3.63;;;;;;;16.80;43.00;100819.09;5074091;28;20083;-64
2023/04/28 04:52:30;;;;;;;6.22;3.47;;;;;;;16.79;43.00;100823.63;5074341;28;20051;-64
2023/04/28 04:54:58;;;;;;;7.50;3.78;;;;;;;16.77;43.21;100820.16;5073954;28;20052;-64
2023/04/28 04:57:26;;;;;;;5.35;3.50;;;;;;;16.77;43.02;100822.00;5073599;28;20534;-64
2023/04/28 04:59:54;;;;;;;6.32;3.60;;;;;;;16.76;42.92;100825.66;5073538;28;20098;-64
2023/04/28 05:02:22;;;;;;;7.63;3.75;;;;;;;16.76;43.04;100829.22;5074127;28;20441;-64
2023/04/28 05:04:50;;;;;;;6.70;3.80;;;;;;;16.76;43.15;100829.22;5073914;28;20048;-64
2023/04/28 05:07:19;;;;;;;6.45;3.75;;;;;;;16.76;43.38;100826.53;5073878;28;20450;-65
2023/04/28 05:09:49;;;;;;;7.43;3.50;;;;;;;16.77;43.12;100830.06;5073366;28;20041;-64
2023/04/28 05:12:17;;;;;;;5.93;3.47;;;;;;;16.78;43.18;100823.72;5073340;28;20135;-64
2023/04/28 05:14:45;;;;;;;5.75;3.60;;;;;;;16.77;43.10;100824.69;5073475;28;20068;-63
2023/04/28 05:17:13;;;;;;;6.80;3.60;;;;;;;16.76;43.17;100826.53;5073773;28;20055;-64
2023/04/28 05:19:41;;;;;;;7.75;3.42;;;;;;;16.75;43.33;100829.34;5073742;28;20401;-64
2023/04/28 05:22:10;;;;;;;5.90;3.80;;;;;;;16.75;43.39;100832.88;5073153;28;20047;-65
2023/04/28 05:24:38;;;;;;;5.70;3.58;;;;;;;16.76;43.39;100831.06;5083723;28;20090;-63
2023/04/28 05:27:07;;;;;;;7.60;3.88;;;;;;;16.76;43.25;100834.59;5093475;28;20105;-63
2023/04/28 05:29:36;;;;;;;6.30;3.50;;;;;;;16.76;42.96;100833.75;5093738;28;20048;-61
2023/04/28 05:32:04;;;;;;;8.82;3.67;;;;;;;16.76;43.81;100833.75;5093647;28;20060;-65
2023/04/28 05:34:32;;;;;;;10.63;4.00;;;;;;;16.77;43.68;100838.16;5092207;28;20534;-64
2023/04/28 05:37:01;;;;;;;8.48;3.80;;;;;;;16.77;43.80;100841.72;5091293;28;20052;-64
2023/04/28 05:39:29;;;;;;;6.88;3.72;;;;;;;16.78;44.04;100843.41;5091189;28;20055;-64
2023/04/28 05:41:57;;;;;;;8.52;3.90;;;;;;;16.78;44.12;100840.72;5091438;28;20070;-63
2023/04/28 05:44:27;;;;;;;8.05;3.92;;;;;;;16.79;44.35;100836.19;5072548;28;20051;-64
2023/04/28 05:46:55;;;;;;;6.43;3.63;;;;;;;16.79;43.91;100831.69;5070669;28;20056;-63
2023/04/28 05:49:23;;;;;;;9.75;3.85;;;;;;;16.81;44.19;100831.56;5071051;28;20128;-63
2023/04/28 05:51:51;;;;;;;7.60;4.13;;;;;;;16.81;44.56;100837.81;5072642;28;20551;-63
2023/04/28 05:54:19;;;;;;;6.18;4.10;;;;;;;16.82;44.45;100838.69;5072380;28;20088;-65
2023/04/28 05:56:47;;;;;;;11.82;5.65;;;;;;;16.83;44.46;100843.09;5072515;28;20049;-64
2023/04/28 05:59:16;;;;;;;13.18;7.07;;;;;;;16.83;45.09;100845.78;5072816;28;20049;-64
2023/04/28 06:01:46;;;;;;;12.48;6.68;;;;;;;16.85;45.16;100841.13;5072872;28;20049;-64
2023/04/28 06:04:14;;;;;;;13.60;7.07;;;;;;;16.84;45.68;100832.19;5072580;28;20052;-64
2023/04/28 06:06:43;;;;;;;13.88;6.78;;;;;;;16.85;45.91;100839.28;5072351;28;20059;-63
2023/04/28 06:09:11;;;;;;;13.90;6.60;;;;;;;16.86;45.62;100840.16;5072648;28;20059;-64
2023/04/28 06:11:39;;;;;;;12.57;6.35;;;;;;;16.88;45.99;100843.56;5072606;28;20053;-64
2023/04/28 06:14:07;;;;;;;12.02;5.80;;;;;;;16.88;45.97;100844.44;5071617;28;20128;-64
2023/04/28 06:16:35;;;;;;;12.25;5.75;;;;;;;16.90;45.88;100847.03;5072064;28;20103;-64
2023/04/28 06:19:05;;;;;;;9.98;5.35;;;;;;;16.91;46.02;100843.34;5072211;28;20056;-64
2023/04/28 06:21:33;;;;;;;9.77;5.50;;;;;;;16.93;46.09;100851.31;5072391;28;20124;-63
2023/04/28 06:24:01;;;;;;;9.25;5.35;;;;;;;16.93;45.91;100851.31;5072393;28;20041;-65
2023/04/28 06:26:29;;;;;;;12.75;5.68;;;;;;;16.93;46.07;100846.78;5072244;28;20044;-63
2023/04/28 06:28:58;;;;;;;11.60;5.85;;;;;;;16.94;46.15;100853.88;5072075;28;20049;-63
2023/04/28 06:31:26;;;;;;;11.40;5.45;;;;;;;16.96;46.11;100851.94;5071902;28;20414;-63
2023/04/28 06:33:55;;;;;;;12.23;5.45;;;;;;;16.96;46.02;100854.63;5069817;28;20143;-63
2023/04/28 06:36:25;;;;;;;13.18;6.22;;;;;;;16.96;45.91;100851.94;5072152;28;20117;-63
2023/04/28 06:38:53;;;;;;;15.07;6.10;;;;;;;16.99;46.04;100854.41;5072250;28;20473;-63
2023/04/28 06:41:22;;;;;;;10.40;5.05;;;;;;;16.99;46.02;100843.63;5072084;28;20045;-63
2023/04/28 06:43:50;;;;;;;15.90;5.68;;;;;;;17.00;46.02;100849.88;5071719;28;20444;-63
2023/04/28 06:46:18;;;;;;;16.17;5.88;;;;;;;17.00;46.03;100847.19;5070277;28;20048;-63
2023/04/28 06:48:46;;;;;;;12.85;5.78;;;;;;;16.99;46.15;100846.31;5071991;28;20048;-62
2023/04/28 06:51:15;;;;;;;11.80;5.65;;;;;;;17.01;45.63;100849.75;5071804;28;20087;-62
2023/04/28 06:53:45;;;;;;;12.55;5.60;;;;;;;17.02;45.87;100848.78;5071671;28;20047;-64
2023/04/28 06:56:14;;;;;;;13.23;6.03;;;;;;;17.02;45.82;100840.69;5071565;28;20056;-64
2023/04/28 06:58:42;;;;;;;12.57;5.30;;;;;;;17.04;46.22;100844.09;5071486;28;20091;-64
2023/04/28 07:01:11;;;;;;;13.48;5.68;;;;;;;17.04;46.02;100841.41;5071693;28;20068;-63
2023/04/28 07:03:39;;;;;;;11.93;5.57;;;;;;;17.05;46.10;100848.53;5071825;28;20049;-64
2023/04/28 07:06:07;;;;;;;12.57;5.43;;;;;;;17.06;46.13;100838.59;5071846;28;20440;-64
2023/04/28 07:08:36;;;;;;;11.02;5.22;;;;;;;17.07;46.16;100838.47;5071451;28;20497;-64
2023/04/28 07:11:05;;;;;;;11.55;5.38;;;;;;;17.08;46.11;100834.84;5071638;28;20076;-64
2023/04/28 07:13:34;;;;;;;11.93;5.30;;;;;;;17.09;46.05;100833.84;5071588;28;20642;-64
2023/04/28 07:16:05;;;;;;;16.05;5.65;;;;;;;17.11;46.13;100836.41;5071560;28;20052;-64
2023/04/28 07:18:33;;;;;;;9.88;5.00;;;;;;;17.12;45.87;100830.91;5071347;28;20118;-64
2023/04/28 07:21:01;;;;;;;11.90;5.30;;;;;;;17.13;45.95;100829.91;5071178;28;20410;-64
2023/04/28 07:23:32;;;;;;;10.63;5.28;;;;;;;17.14;46.12;100826.25;5071004;28;20044;-63
2023/04/28 07:26:01;;;;;;;10.75;5.32;;;;;;;17.16;45.92;100828.81;5071097;28;20440;-63
2023/04/28 07:28:30;;;;;;;10.93;4.63;;;;;;;17.19;45.98;100836.69;5071404;28;20048;-63
2023/04/28 07:30:59;;;;;;;10.10;5.10;;;;;;;17.20;45.96;100837.53;5071328;28;20059;-63
2023/04/28 07:33:27;;;;;;;11.73;5.05;;;;;;;17.20;45.74;100833.00;5071134;28;20052;-63
2023/04/28 07:35:55;;;;;;;11.38;5.30;;;;;;;17.22;45.97;100830.19;5071166;28;20140;-63
2023/04/28 07:38:23;;;;;;;8.85;4.68;;;;;;;17.22;46.02;100825.66;5071156;28;20144;-63
2023/04/28 07:40:52;;;;;;;9.93;4.72;;;;;;;17.25;45.88;100835.31;5071412;28;20049;-63
2023/04/28 07:43:20;;;;;;;8.15;4.68;;;;;;;17.26;45.86;100826.25;5071543;28;20422;-63
2023/04/28 07:45:50;;;;;;;10.38;4.70;;;;;;;17.26;45.84;100827.09;5071440;28;20063;-63
2023/04/28 07:48:18;;;;;;;11.25;5.15;;;;;;;17.29;45.91;100826.03;5075317;28;20041;-64
2023/04/28 07:50:47;;;;;;;9.15;5.20;;;;;;;17.29;46.04;100826.03;5076042;28;20152;-63
2023/04/28 07:53:15;;;;;;;10.32;5.05;;;;;;;17.31;45.84;100824.06;5075159;28;20052;-63
2023/04/28 07:55:44;;;;;;;10.77;5.47;;;;;;;17.31;46.03;100818.66;5075754;28;20048;-63
2023/04/28 07:58:13;;;;;;;8.25;4.90;;;;;;;17.33;45.92;100816.69;5075385;28;20417;-64
2023/04/28 08:00:41;;;;;;;12.05;5.43;;;;;;;17.35;45.94;100814.75;5075161;28;20068;-64
2023/04/28 08:03:10;;;;;;;9.00;4.60;;;;;;;17.35;45.89;100809.34;5075099;28;20052;-64
2023/04/28 08:05:39;;;;;;;10.70;5.03;;;;;;;17.36;45.83;100800.28;5075004;28;20054;-64
2023/04/28 08:08:08;;;;;;;8.13;4.55;;;;;;;17.37;45.88;100796.59;5074803;28;20040;-64
2023/04/28 08:10:36;;;;;;;9.90;4.72;;;;;;;17.38;45.88;100792.94;5075076;28;20044;-64
2023/04/28 08:13:05;;;;;;;8.00;4.43;;;;;;;17.38;45.86;100791.09;5074598;28;20087;-64
2023/04/28 08:15:33;;;;;;;10.70;4.60;;;;;;;17.40;45.62;100783.75;5074732;28;20147;-64
2023/04/28 08:18:02;;;;;;;10.50;4.95;;;;;;;17.42;45.63;100783.63;5074483;28;20045;-63
2023/04/28 08:20:31;;;;;;;9.30;4.53;;;;;;;17.42;45.59;100779.06;5074312;28;20082;-63
2023/04/28 08:23:00;;;;;;;8.77;4.32;;;;;;;17.44;45.83;100770.84;5074737;28;20106;-63
2023/04/28 08:25:28;;;;;;;8.77;4.50;;;;;;;17.43;45.65;100772.69;5074757;28;20076;-63
2023/04/28 08:27:57;;;;;;;8.20;4.28;;;;;;;17.46;45.65;100768.88;5074627;28;20067;-63
2023/04/28 08:30:25;;;;;;;8.25;4.72;;;;;;;17.48;45.67;100771.50;5074684;28;20053;-63
2023/04/28 08:32:53;;;;;;;8.68;4.30;;;;;;;17.49;45.54;100763.28;5074252;28;20482;-63
2023/04/28 08:35:22;;;;;;;9.20;4.50;;;;;;;17.49;45.62;100763.28;5074455;28;20044;-63
2023/04/28 08:37:52;;;;;;;8.88;4.63;;;;;;;17.51;45.54;100757.75;5074375;28;20048;-63
2023/04/28 08:40:20;;;;;;;9.15;4.63;;;;;;;17.51;45.65;100755.03;5074317;28;20059;-63
2023/04/28 08:42:49;;;;;;;9.25;4.63;;;;;;;17.53;45.63;100759.31;5074550;28;20132;-64
2023/04/28 08:45:17;;;;;;;8.77;4.28;;;;;;;17.55;45.61;100751.09;5074143;28;20117;-64
2023/04/28 08:47:48;;;;;;;7.85;4.72;;;;;;;17.56;45.46;100753.66;5074209;28;20048;-63
2023/04/28 08:50:22;;;;;;;9.57;4.63;;;;;;;17.59;45.81;100756.16;5074305;28;20052;-63
2023/04/28 08:52:52;;;;;;;9.52;4.35;;;;;;;17.60;45.72;100744.38;5074081;28;20265;-63
2023/04/28 08:55:21;;;;;;;7.18;4.38;;;;;;;17.62;45.80;100744.25;5074109;28;20051;-63
2023/04/28 08:57:51;;;;;;;8.88;4.22;;;;;;;17.62;45.55;100739.69;5073501;28;20147;-63
2023/04/28 09:00:19;;;;;;;8.90;4.68;;;;;;;17.65;45.62;100741.28;5073851;28;20056;-64
2023/04/28 09:02:47;;;;;;;8.13;4.32;;;;;;;17.67;45.79;100745.59;5075700;28;20048;-64
2023/04/28 09:05:16;;;;;;;8.50;4.57;;;;;;;17.66;45.46;100749.28;5074177;28;20045;-63
2023/04/28 09:07:46;;;;;;;8.13;4.10;;;;;;;17.69;45.88;100742.75;5073879;28;20512;-64
2023/04/28 09:10:23;;;;;;;8.35;4.55;;;;;;;17.70;45.89;100742.66;5073623;28;20486;-63
2023/04/28 09:12:53;;;;;;;6.72;3.90;;;;;;;17.71;45.66;100738.97;5073060;28;20082;-63
2023/04/28 09:15:33;;;;;;;9.98;4.63;;;;;;;17.73;45.74;100745.09;5073569;28;20127;-63
2023/04/28 09:18:02;;;;;;;7.25;3.92;;;;;;;17.75;45.71;100734.19;5073680;28;20045;-64
2023/04/28 09:20:35;;;;;;;7.47;4.30;;;;;;;17.77;45.65;100736.78;5073608;28;20087;-64
2023/04/28 09:23:16;;;;;;;6.22;3.80;;;;;;;17.79;45.77;100737.50;5073532;28;20045;-64
2023/04/28 09:25:59;;;;;;;6.53;4.15;;;;;;;17.81;45.72;100739.06;5073386;28;20056;-63
2023/04/28 09:28:28;;;;;;;7.93;4.28;;;;;;;17.82;45.92;100737.22;5073582;28;20048;-63
2023/04/28 09:30:56;;;;;;;8.50;4.50;;;;;;;17.85;45.72;100743.22;5073426;28;20139;-64
2023/04/28 09:33:26;;;;;;;7.63;4.10;;;;;;;17.86;45.73;100739.56;5073086;28;20104;-64
2023/04/28 09:35:55;;;;;;;7.68;4.07;;;;;;;17.88;45.59;100736.72;5073185;28;20052;-63
2023/04/28 09:38:24;;;;;;;6.90;3.72;;;;;;;17.90;45.60;100735.63;5073347;28;20045;-63
2023/04/28 09:40:55;;;;;;;8.60;4.22;;;;;;;17.92;45.46;100739.03;5073311;28;20110;-64
2023/04/28 09:43:33;;;;;;;6.72;3.50;;;;;;;17.95;45.64;100732.53;5073229;28;20102;-63
2023/04/28 09:46:02;;;;;;;7.32;4.00;;;;;;;17.97;45.56;100727.88;5072885;28;20048;-63
2023/04/28 09:48:33;;;;;;;7.25;3.97;;;;;;;18.00;45.73;100722.22;5072773;28;20105;-63
2023/04/28 09:51:04;;;;;;;7.85;4.10;;;;;;;18.01;45.49;100705.03;5072787;28;20393;-63
2023/04/28 09:53:35;;;;;;;7.32;3.50;;;;;;;18.03;45.47;100703.03;5072918;28;20044;-63
2023/04/28 09:56:05;;;;;;;6.15;3.65;;;;;;;18.05;45.42;100711.91;5072862;28;20053;-62
2023/04/28 09:58:40;;;;;;;7.43;4.22;;;;;;;18.07;45.43;100709.91;5072665;28;20048;-62
2023/04/28 10:01:11;;;;;;;6.80;3.70;;;;;;;18.09;45.54;100710.66;5072778;28;20056;-64
2023/04/28 10:03:40;;;;;;;7.30;4.00;;;;;;;18.11;45.42;100714.06;5072619;28;20052;-63
2023/04/28 10:06:08;;;;;;;6.00;3.80;;;;;;;18.12;45.49;100696.88;5072650;28;20053;-63
2023/04/28 10:08:39;;;;;;;6.72;3.80;;;;;;;18.16;45.42;100697.50;5071627;28;20553;-64
2023/04/28 10:11:08;;;;;;;5.75;3.30;;;;;;;18.16;45.44;100687.53;5072289;28;20490;-64
2023/04/28 10:13:38;;;;;;;6.70;3.55;;;;;;;18.19;45.12;100695.38;5072454;28;20047;-64
2023/04/28 10:16:08;;;;;;;7.38;3.70;;;;;;;18.21;45.10;100690.69;5072842;28;20143;-63
2023/04/28 10:18:37;;;;;;;7.80;3.65;;;;;;;18.24;45.11;100689.59;5073093;28;20056;-63
2023/04/28 10:21:06;;;;;;;5.72;3.67;;;;;;;18.25;45.27;100678.66;5072054;28;20105;-63
2023/04/28 10:23:55;;;;;;;7.07;3.40;;;;;;;18.27;45.25;100682.09;5072097;28;20547;-62
2023/04/28 10:26:36;;;;;;;6.82;3.67;;;;;;;18.30;45.01;100671.00;5072439;28;20044;-63
2023/04/28 10:29:07;;;;;;;6.35;3.53;;;;;;;18.33;45.10;100672.59;5072215;28;20047;-63
2023/04/28 10:31:35;;;;;;;5.43;3.53;;;;;;;18.36;44.85;100666.09;5071954;28;20468;-64
2023/04/28 10:34:22;;;;;;;6.60;3.45;;;;;;;18.39;45.14;100660.41;5072023;28;20048;-64
2023/04/28 10:36:53;;;;;;;7.47;3.50;;;;;;;18.42;44.87;100652.03;5072328;28;20174;-64
2023/04/28 10:39:22;;;;;;;6.50;3.45;;;;;;;18.44;45.15;100641.97;5072183;28;20094;-64
2023/04/28 10:41:50;;;;;;;6.70;3.60;;;;;;;18.47;45.08;100647.09;5072106;28;20401;-64
2023/04/28 10:44:44;;;;;;;6.32;3.45;;;;;;;18.51;45.08;100645.84;5072058;28;20048;-64
2023/04/28 10:47:12;;;;;;;5.20;3.30;;;;;;;18.54;44.85;100634.78;5071852;28;20052;-64
2023/04/28 10:50:07;;;;;;;5.63;2.90;;;;;;;18.58;44.90;100633.50;5071669;28;20131;-65
2023/04/28 10:52:51;;;;;;;5.93;3.30;;;;;;;18.60;44.91;100631.53;5072007;28;20220;-63
2023/04/28 10:55:36;;;;;;;6.55;3.30;;;;;;;18.63;44.97;100619.63;5071776;28;20055;-64
2023/04/28 10:58:32;;;;;;;7.90;3.30;;;;;;;18.64;44.61;100622.19;5071908;28;20052;-63
2023/04/28 11:01:25;;;;;;;5.90;3.03;;;;;;;18.67;44.72;100610.25;5067671;28;20052;-63
2023/04/28 11:03:58;;;;;;;6.85;3.60;;;;;;;18.68;44.90;100612.81;5065914;28;20049;-63
2023/04/28 11:06:29;;;;;;;6.70;3.58;;;;;;;18.71;44.37;100609.84;5071697;28;20052;-63
2023/04/28 11:09:02;;;;;;;5.55;2.90;;;;;;;18.76;44.37;100613.00;5071745;28;20044;-62
2023/04/28 11:11:33;;;;;;;4.93;2.90;;;;;;;18.77;44.30;100603.91;5071446;28;20102;-63
2023/04/28 11:14:39;;;;;;;4.80;3.08;;;;;;;18.79;44.35;100599.22;5071508;28;20298;-63
2023/04/28 11:17:12;;;;;;;5.45;2.67;;;;;;;18.81;44.47;100597.22;5071703;28;20406;-63
2023/04/28 11:19:41;;;;;;;;;;;;;;;18.82;44.16;100588.16;5071747;28;20417;-62
2023/04/28 11:22:14;;;;;;;5.45;3.10;;;;;;;18.84;44.40;100594.28;5071499;28;20350;-63
2023/04/28 11:24:55;;;;;;;5.18;2.97;;;;;;;18.84;44.24;100596.13;5071552;28;20056;-63
2023/04/28 11:27:25;;;;;;;5.40;3.33;;;;;;;18.84;44.38;100596.97;5071571;28;20063;-63
2023/04/28 11:29:54;;;;;;;4.88;3.00;;;;;;;18.86;44.50;100596.84;5071295;28;20044;-64
2023/04/28 11:32:29;;;;;;;6.00;3.28;;;;;;;18.86;44.47;100594.13;5071250;28;20048;-63
2023/04/28 11:34:57;;;;;;;4.32;2.90;;;;;;;18.86;44.45;100597.69;5072893;28;20040;-64